^^
Datos históricos de la estación: Murcia-Puente Tocinos
Diario Informe para Julio 19, 2019 Unidades:  Métrico    Ingés   Ambas
Diario Semanal Mensual Anual
  Máxima: Mínima: Promedio:
Temperatura: 28.2 °C 20.1 °C 23.9 °C
Punto de rocio: 20.7 °C 16.5 °C 18.8 °C
Humedad: 90% 50.8% 74%
Velocidad viento: 15.6km/h 0km/h 6.5km/h
Racha viento: 28.2km/h - -
Viento- - ESE
Presión: 1015.9 hPa 1013.4 hPa -
Precipitación: 0.0 mm    
 
 
Tabla de datos para Julio 19, 2019
Hora Temperatura Punto de rocio Presión Viento Velocidad viento Racha viento Humedad Intensidad lluvia(por hora) Nubes
00:04 22.7 °C 20.2 °C 1014.5 hPa NNE 2.2 km/h 6.4 km/h 86% 0.0 mm
00:09 22.7 °C 20.2 °C 1014.5 hPa NNE 2.2 km/h 4.8 km/h 86% 0.0 mm
00:14 22.6 °C 20.1 °C 1014.5 hPa NNE 2.2 km/h 4.8 km/h 86% 0.0 mm
00:19 22.6 °C 20.1 °C 1014.6 hPa NNE 2.2 km/h 4.7 km/h 86% 0.0 mm
00:24 22.5 °C 20 °C 1014.6 hPa NNE 2.2 km/h 5.6 km/h 85.6% 0.0 mm
00:29 22.4 °C 19.7 °C 1014.6 hPa Este 2.4 km/h 9.3 km/h 84.4% 0.0 mm
00:34 22.3 °C 19.1 °C 1014.6 hPa SE 3.2 km/h 9.7 km/h 82.3% 0.0 mm
00:36 22.3 °C 19 °C 1014.6 hPa SE 3.2 km/h 6.4 km/h 82% 0.0 mm
00:44 22.2 °C 19 °C 1014.6 hPa SE 2.3 km/h 3.7 km/h 82% 0.0 mm
00:49 22.2 °C 19 °C 1014.6 hPa SE 1.8 km/h 3.2 km/h 82% 0.0 mm
00:54 22.2 °C 19 °C 1014.6 hPa Calm   3.9 km/h 82% 0.0 mm
00:59 22.2 °C 19 °C 1014.6 hPa Calm   3.9 km/h 82% 0.0 mm
01:04 22.2 °C 19.1 °C 1014.7 hPa Calm   2.3 km/h 82.5% 0.0 mm
01:09 22.2 °C 19.2 °C 1014.7 hPa Calm   1.9 km/h 83.3% 0.0 mm
01:12 22.2 °C 19.4 °C 1014.7 hPa Calm     84% 0.0 mm
01:19 22.1 °C 19.3 °C 1014.7 hPa Calm     84% 0.0 mm
01:23 22.1 °C 19.4 °C 1014.5 hPa Calm     84.9% 0.0 mm
01:29 22.1 °C 19.4 °C 1014.5 hPa Calm     85% 0.0 mm
01:34 22.1 °C 19.4 °C 1014.5 hPa Calm   7.6 km/h 84.9% 0.0 mm
01:39 22 °C 19.1 °C 1014.5 hPa SE 0.5 km/h 8.4 km/h 84% 0.0 mm
01:44 21.9 °C 19.1 °C 1014.5 hPa ESE 2.9 km/h 8 km/h 84% 0.0 mm
01:49 21.8 °C 19 °C 1014.6 hPa SE 3.1 km/h 7.4 km/h 84% 0.0 mm
01:54 21.8 °C 19.1 °C 1014.6 hPa SE 3.9 km/h 8 km/h 84.9% 0.0 mm
01:59 21.7 °C 19.1 °C 1014.6 hPa SE 3.6 km/h 8 km/h 85% 0.0 mm
02:04 21.7 °C 18.9 °C 1014.6 hPa SE 2.9 km/h 5.6 km/h 84.3% 0.0 mm
02:09 21.7 °C 18.9 °C 1014.6 hPa SE 2.9 km/h 5.6 km/h 84% 0.0 mm
02:14 21.6 °C 18.6 °C 1014.6 hPa SE 2.9 km/h 7.6 km/h 83.1% 0.0 mm
02:19 21.4 °C 18.3 °C 1014.7 hPa SE 3.2 km/h 8.4 km/h 82.2% 0.0 mm
02:24 21.3 °C 18.1 °C 1014.7 hPa SE 4.7 km/h 8 km/h 82% 0.0 mm
02:29 21.3 °C 18.1 °C 1014.7 hPa SE 4.5 km/h 8 km/h 82% 0.0 mm
02:34 21.3 °C 18 °C 1014.8 hPa SE 3.9 km/h 9.5 km/h 81.6% 0.0 mm
02:39 21.2 °C 17.8 °C 1014.8 hPa SE 4 km/h 9.7 km/h 81% 0.0 mm
02:44 21.2 °C 17.8 °C 1014.8 hPa SE 5 km/h 9.7 km/h 81% 0.0 mm
02:49 21.2 °C 18 °C 1014.8 hPa SE 4.9 km/h 8 km/h 82% 0.0 mm
02:54 21.2 °C 18 °C 1014.7 hPa SE 4.7 km/h 8 km/h 82% 0.0 mm
02:59 21.2 °C 17.9 °C 1014.7 hPa SE 4.5 km/h 7.4 km/h 81.2% 0.0 mm
03:04 21.2 °C 17.8 °C 1014.7 hPa ESE 3.9 km/h 8 km/h 81% 0.0 mm
03:09 21.1 °C 17.7 °C 1014.6 hPa SE 4 km/h 8 km/h 81% 0.0 mm
03:14 21 °C 17.8 °C 1014.6 hPa SE 4.7 km/h 8 km/h 81.8% 0.0 mm
03:19 21.1 °C 17.9 °C 1014.6 hPa SE 4.2 km/h 6.4 km/h 82% 0.0 mm
03:24 21.1 °C 17.9 °C 1014.5 hPa ESE 2.2 km/h 8 km/h 82% 0.0 mm
03:29 21 °C 17.8 °C 1014.5 hPa SE 2.4 km/h 8 km/h 82% 0.0 mm
03:34 20.9 °C 17.8 °C 1014.5 hPa SE 3.2 km/h 8 km/h 82% 0.0 mm
03:39 20.9 °C 17.8 °C 1014.5 hPa SE 2.7 km/h   82.6% 0.0 mm
03:44 21 °C 18 °C 1014.5 hPa Calm     83% 0.0 mm
03:49 21 °C 18 °C 1014.5 hPa Calm   3.2 km/h 83% 0.0 mm
03:54 21.1 °C 18.2 °C 1014.4 hPa Calm   4.7 km/h 83.5% 0.0 mm
03:59 21.1 °C 18.1 °C 1014.4 hPa SE 0.5 km/h 4.8 km/h 83% 0.0 mm
04:04 21.1 °C 18.1 °C 1014.4 hPa SE 2.2 km/h 5 km/h 83% 0.0 mm
04:09 21.2 °C 18.2 °C 1014.3 hPa SE 2.4 km/h 5.6 km/h 83% 0.0 mm
04:14 21.2 °C 18.2 °C 1014.3 hPa SE 2.9 km/h 4.8 km/h 83% 0.0 mm
04:19 21.2 °C 18.3 °C 1014.3 hPa SE 2.4 km/h 3.9 km/h 83.4% 0.0 mm
04:24 21.1 °C 18.3 °C 1014.2 hPa Calm   5.8 km/h 84% 0.0 mm
04:29 21.1 °C 18.3 °C 1014.2 hPa SE 0.4 km/h 6.4 km/h 84% 0.0 mm
04:34 21.1 °C 18.3 °C 1014.2 hPa SE 2.2 km/h 6.4 km/h 84% 0.0 mm
04:39 21 °C 18.2 °C 1014.1 hPa SE 2.4 km/h 5.8 km/h 84% 0.0 mm
04:44 21 °C 18.2 °C 1014.1 hPa SSE 2.9 km/h 7.6 km/h 84.4% 0.0 mm
04:49 20.9 °C 18.4 °C 1014.1 hPa Sur 3.2 km/h 8 km/h 85.6% 0.0 mm
04:54 20.9 °C 18.6 °C 1014.1 hPa Sur 4.7 km/h 8 km/h 86.6% 0.0 mm
04:59 20.9 °C 18.7 °C 1014.1 hPa Sur 4.3 km/h 6.4 km/h 87% 0.0 mm
05:04 20.9 °C 18.7 °C 1014.1 hPa Sur 3.2 km/h 5.6 km/h 87% 0.0 mm
05:09 20.9 °C 18.7 °C 1014.1 hPa Sur 3.1 km/h 4.8 km/h 87% 0.0 mm
05:14 20.9 °C 18.6 °C 1014.1 hPa Sur 2.2 km/h 3.9 km/h 87% 0.0 mm
05:19 20.8 °C 18.6 °C 1014.1 hPa Sur 2.2 km/h 3.9 km/h 87% 0.0 mm
05:24 20.7 °C 18.5 °C 1014.1 hPa Sur 2.2 km/h 3.7 km/h 87% 0.0 mm
05:29 20.7 °C 18.4 °C 1014.1 hPa Sur 1.8 km/h 3.2 km/h 87% 0.0 mm
05:34 20.6 °C 18.3 °C 1014.2 hPa Calm     87% 0.0 mm
05:39 20.5 °C 18.3 °C 1014.2 hPa Calm     87% 0.0 mm
05:44 20.4 °C 18.2 °C 1014.2 hPa Calm     87% 0.0 mm
05:49 20.4 °C 18.3 °C 1014.2 hPa Calm   2.3 km/h 87.9% 0.0 mm
05:54 20.4 °C 18.3 °C 1014.1 hPa Calm   5.8 km/h 88% 0.0 mm
05:59 20.4 °C 18.3 °C 1014.1 hPa Sur 0.6 km/h 6.4 km/h 88% 0.0 mm
06:04 20.3 °C 18.3 °C 1014.1 hPa SSE 2.9 km/h 7.4 km/h 88% 0.0 mm
06:09 20.3 °C 18.4 °C 1013.9 hPa SSE 3.2 km/h 8 km/h 88.6% 0.0 mm
06:14 20.3 °C 18.4 °C 1013.9 hPa SSE 4.7 km/h 8 km/h 89% 0.0 mm
06:19 20.3 °C 18.5 °C 1013.9 hPa SSE 4.5 km/h 7.4 km/h 89.1% 0.0 mm
06:24 20.3 °C 18.6 °C 1013.8 hPa SSE 3.9 km/h 8 km/h 90% 0.0 mm
06:29 20.3 °C 18.6 °C 1013.8 hPa SSE 4 km/h 8.7 km/h 90% 0.0 mm
06:34 20.3 °C 18.6 °C 1013.8 hPa SSE 5 km/h 9.7 km/h 90% 0.0 mm
06:39 20.2 °C 18.5 °C 1013.7 hPa Sur 5.2 km/h 11.1 km/h 90% 0.0 mm
06:44 20.2 °C 18.5 °C 1013.7 hPa Sur 6.4 km/h 11.3 km/h 90% 0.0 mm
06:49 20.1 °C 18.4 °C 1013.8 hPa Sur 6.5 km/h 9.7 km/h 90% 0.0 mm
06:54 20.1 °C 18.4 °C 1013.8 hPa Sur 6.5 km/h 10 km/h 90% 0.0 mm
06:59 20.1 °C 18.4 °C 1013.8 hPa SSO 6.6 km/h 11.1 km/h 90% 0.0 mm
07:04 20.2 °C 18.4 °C 1013.9 hPa SSO 6.9 km/h 11.9 km/h 90% 0.0 mm
07:09 20.2 °C 18.4 °C 1013.9 hPa SSO 6.9 km/h 11.3 km/h 89.4% 0.0 mm
07:14 20.2 °C 18.3 °C 1013.9 hPa SSO 6.9 km/h 10 km/h 89% 0.0 mm
07:19 20.2 °C 18.2 °C 1014.0 hPa SO 6.8 km/h 10.3 km/h 88.5% 0.0 mm
07:24 20.2 °C 18.2 °C 1014.0 hPa SSO 6.5 km/h 13 km/h 88% 0.0 mm
07:29 20.2 °C 18 °C 1014.0 hPa SO 6.5 km/h 12.9 km/h 87.1% 0.0 mm
07:34 20.3 °C 17.9 °C 1014.1 hPa OSO 6.9 km/h 14.8 km/h 86.3% 0.0 mm
07:39 20.3 °C 17.7 °C 1014.1 hPa SO 7.2 km/h 16.1 km/h 85.4% 0.0 mm
07:44 20.3 °C 17.7 °C 1014.1 hPa SO 8.4 km/h 16.7 km/h 85% 0.0 mm
07:49 20.3 °C 17.7 °C 1014.2 hPa OSO 8.4 km/h 16.1 km/h 85% 0.0 mm
07:54 20.3 °C 17.7 °C 1014.2 hPa SO 8.7 km/h 12.9 km/h 85% 0.0 mm
07:59 20.3 °C 17.7 °C 1014.2 hPa SO 7.9 km/h 11.3 km/h 85% 0.0 mm
08:04 20.3 °C 17.7 °C 1014.4 hPa SO 5 km/h 9.5 km/h 85% 0.0 mm
08:09 20.3 °C 17.7 °C 1014.4 hPa SO 5.1 km/h 9.7 km/h 85% 0.0 mm
08:14 20.3 °C 17.7 °C 1014.4 hPa OSO 5.8 km/h 9.7 km/h 85.4% 0.0 mm
08:19 20.3 °C 17.9 °C 1014.6 hPa OSO 5.6 km/h 8.7 km/h 86% 0.0 mm
08:24 20.4 °C 18 °C 1014.6 hPa OSO 4.7 km/h 10.3 km/h 86% 0.0 mm
08:29 20.4 °C 18 °C 1014.6 hPa Oeste 4.8 km/h 11.3 km/h 86% 0.0 mm
08:34 20.4 °C 18 °C 1014.6 hPa Oeste 5.8 km/h 11.3 km/h 86% 0.0 mm
08:39 20.4 °C 18 °C 1014.6 hPa ONO 5.3 km/h 6.4 km/h 86% 0.0 mm
08:44 20.4 °C 18 °C 1014.6 hPa ONO 2.9 km/h 4.8 km/h 86% 0.0 mm
08:49 20.5 °C 18.1 °C 1014.8 hPa ONO 2.8 km/h 5 km/h 86% 0.0 mm
08:54 20.7 °C 18.2 °C 1014.8 hPa ONO 2.2 km/h 8.4 km/h 86% 0.0 mm
08:59 20.7 °C 18.3 °C 1014.8 hPa Oeste 2.8 km/h 8 km/h 86% 0.0 mm
09:04 20.8 °C 18.4 °C 1014.9 hPa Oeste 4.7 km/h 8 km/h 86% 0.0 mm
09:09 20.9 °C 18.5 °C 1014.9 hPa Oeste 4.2 km/h 4.8 km/h 86% 0.0 mm
09:14 21.1 °C 18.7 °C 1014.9 hPa SO 2.2 km/h 5.8 km/h 85.9% 0.0 mm
09:19 21.4 °C 18.6 °C 1015.0 hPa SE 2.4 km/h 7.4 km/h 84.4% 0.0 mm
09:24 21.6 °C 18.7 °C 1015.0 hPa SE 2.9 km/h 8 km/h 83.6% 0.0 mm
09:29 21.7 °C 18.7 °C 1015.0 hPa SE 2.9 km/h 6.4 km/h 83.2% 0.0 mm
09:34 22 °C 18.9 °C 1015.0 hPa SE 2.9 km/h 4.7 km/h 82.9% 0.0 mm
09:39 22.2 °C 18.9 °C 1015.0 hPa SE 2.8 km/h 4.8 km/h 81.6% 0.0 mm
09:44 22.3 °C 19 °C 1015.0 hPa SE 2.2 km/h 4.8 km/h 81.6% 0.0 mm
09:49 22.6 °C 19.1 °C 1015.1 hPa SE 1.9 km/h 4.8 km/h 80.7% 0.0 mm
09:54 23 °C 19.1 °C 1015.1 hPa Calm   6.4 km/h 79% 0.0 mm
09:59 23.1 °C 19 °C 1015.1 hPa ONO 0.5 km/h 8 km/h 77.6% 0.0 mm
10:04 23.1 °C 19.1 °C 1015.2 hPa ONO 2.2 km/h 8 km/h 78% 0.0 mm
10:09 23.1 °C 19.1 °C 1015.2 hPa ONO 2.4 km/h 7.4 km/h 78% 0.0 mm
10:14 23.1 °C 19.1 °C 1015.2 hPa OSO 2.9 km/h 8 km/h 78.1% 0.0 mm
10:19 23.2 °C 19.2 °C 1015.4 hPa SSO 3 km/h 8 km/h 78% 0.0 mm
10:24 23.3 °C 19.2 °C 1015.4 hPa SSE 3.2 km/h 8 km/h 78% 0.0 mm
10:29 23.6 °C 19.4 °C 1015.4 hPa Sur 3.2 km/h 6.4 km/h 77.6% 0.0 mm
10:34 23.8 °C 19.4 °C 1015.4 hPa Oeste 3.2 km/h 6.4 km/h 76.8% 0.0 mm
10:39 24.1 °C 19.5 °C 1015.4 hPa NO 3.2 km/h 7.4 km/h 75.5% 0.0 mm
10:44 24.4 °C 19.5 °C 1015.4 hPa NNE 2.9 km/h 8 km/h 74.3% 0.0 mm
10:49 24.7 °C 19.6 °C 1015.5 hPa NO 2.9 km/h 7.4 km/h 73.3% 0.0 mm
10:54 24.7 °C 19.3 °C 1015.5 hPa ONO 2.9 km/h 8 km/h 72% 0.0 mm
10:59 24.7 °C 19.3 °C 1015.5 hPa Oeste 3.1 km/h 8 km/h 72% 0.0 mm
11:04 24.7 °C 19.1 °C 1015.5 hPa ONO 3.9 km/h 8 km/h 71% 0.0 mm
11:09 24.8 °C 18.9 °C 1015.5 hPa Oeste 3.7 km/h 9.5 km/h 69.7% 0.0 mm
11:14 24.9 °C 18.3 °C 1015.5 hPa Oeste 3.2 km/h 9.7 km/h 66.8% 0.0 mm
11:19 24.9 °C 17.9 °C 1015.6 hPa Oeste 3.2 km/h 8 km/h 64.8% 0.0 mm
11:24 25.2 °C 18.6 °C 1015.6 hPa ONO 3.2 km/h 8 km/h 66.8% 0.0 mm
11:29 25.6 °C 19.1 °C 1015.6 hPa NE 3.2 km/h 8.4 km/h 67.1% 0.0 mm
11:34 25.9 °C 18.9 °C 1015.7 hPa Este 2.9 km/h 8 km/h 65% 0.0 mm
11:39 26 °C 18.5 °C 1015.7 hPa NE 3.1 km/h 8 km/h 63.5% 0.0 mm
11:44 26.1 °C 18.5 °C 1015.7 hPa NE 3.9 km/h 11.1 km/h 63% 0.0 mm
11:49 26.2 °C 18.5 °C 1015.7 hPa NE 4 km/h 13 km/h 63% 0.0 mm
11:54 26 °C 18.3 °C 1015.6 hPa North 5 km/h 12.9 km/h 62.7% 0.0 mm
11:59 26 °C 18.1 °C 1015.6 hPa North 5 km/h 15.6 km/h 61.7% 0.0 mm
12:04 25.9 °C 17.8 °C 1015.6 hPa NE 5 km/h 16.1 km/h 60.7% 0.0 mm
12:09 25.9 °C 17.8 °C 1015.6 hPa NNE 5.3 km/h 12.9 km/h 60.8% 0.0 mm
12:14 26.1 °C 17.9 °C 1015.6 hPa NE 6.9 km/h 17.2 km/h 60.8% 0.0 mm
12:19 26.1 °C 18 °C 1015.7 hPa ENE 7.2 km/h 17.7 km/h 61% 0.0 mm
12:24 26.1 °C 18.1 °C 1015.7 hPa NE 8.7 km/h 17.2 km/h 61.2% 0.0 mm
12:29 26.2 °C 18.2 °C 1015.7 hPa NE 8.5 km/h 17.7 km/h 61.8% 0.0 mm
12:34 26.2 °C 18.3 °C 1015.7 hPa NE 7.6 km/h 19 km/h 61.8% 0.0 mm
12:39 26.3 °C 18.5 °C 1015.5 hPa NE 7.9 km/h 19.3 km/h 62.1% 0.0 mm
12:44 26.6 °C 18.7 °C 1015.5 hPa NNE 9.5 km/h 18.5 km/h 62.1% 0.0 mm
12:49 26.6 °C 18.8 °C 1015.5 hPa NE 9.6 km/h 19.3 km/h 62.1% 0.0 mm
12:54 26.6 °C 18.7 °C 1015.4 hPa NNE 10.3 km/h 19.3 km/h 62.1% 0.0 mm
12:59 26.7 °C 18.9 °C 1015.4 hPa NE 10.1 km/h 17.7 km/h 62.5% 0.0 mm
13:04 26.8 °C 18.9 °C 1015.4 hPa NE 9.5 km/h 18.5 km/h 62% 0.0 mm
13:09 26.8 °C 18.8 °C 1015.3 hPa ENE 9.5 km/h 19.3 km/h 61.9% 0.0 mm
13:14 26.8 °C 19 °C 1015.3 hPa NNE 9.5 km/h 22.5 km/h 62.2% 0.0 mm
13:19 26.8 °C 19.1 °C 1015.3 hPa NE 10.2 km/h 24.1 km/h 62.7% 0.0 mm
13:24 26.9 °C 19.3 °C 1015.2 hPa NE 13 km/h 24.1 km/h 63% 0.0 mm
13:29 27 °C 19.3 °C 1015.2 hPa NE 12.8 km/h 22.2 km/h 63% 0.0 mm
13:34 27.1 °C 19.2 °C 1015.2 hPa NE 11.9 km/h 22.5 km/h 62.3% 0.0 mm
13:39 27.2 °C 19.2 °C 1015.0 hPa NNE 11.8 km/h 20.9 km/h 61.9% 0.0 mm
13:44 27.2 °C 19.1 °C 1015.0 hPa NE 11.1 km/h 19.3 km/h 61.6% 0.0 mm
13:49 27.3 °C 19.2 °C 1015.0 hPa ENE 11.2 km/h 20.4 km/h 61.3% 0.0 mm
13:54 27.3 °C 19.3 °C 1014.9 hPa ENE 11.9 km/h 20.9 km/h 61.5% 0.0 mm
13:59 27.3 °C 19 °C 1014.9 hPa ENE 11.5 km/h 20.1 km/h 60.4% 0.0 mm
14:04 27.3 °C 18.8 °C 1014.9 hPa NE 10.3 km/h 24.5 km/h 59.7% 0.0 mm
14:09 27.4 °C 19.2 °C 1014.7 hPa NE 10.6 km/h 24.1 km/h 61.1% 0.0 mm
14:14 27.5 °C 19.1 °C 1014.7 hPa NE 11.9 km/h 24.5 km/h 60.3% 0.0 mm
14:19 27.3 °C 19.1 °C 1014.7 hPa NE 12.2 km/h 24.5 km/h 60.8% 0.0 mm
14:24 27.5 °C 19.1 °C 1014.7 hPa NNE 13.7 km/h 24.1 km/h 60.1% 0.0 mm
14:29 27.6 °C 19 °C 1014.7 hPa NE 13.6 km/h 20.9 km/h 59.6% 0.0 mm
14:34 27.8 °C 18.8 °C 1014.7 hPa NE 13 km/h 26.2 km/h 58.1% 0.0 mm
14:39 27.8 °C 18.4 °C 1014.5 hPa NE 13.1 km/h 25.7 km/h 56.5% 0.0 mm
14:44 27.8 °C 18.2 °C 1014.5 hPa NE 13.7 km/h 24.1 km/h 55.9% 0.0 mm
14:49 27.9 °C 18.5 °C 1014.5 hPa ENE 13.4 km/h 24.1 km/h 56.3% 0.0 mm
14:54 28 °C 18.3 °C 1014.5 hPa NE 12.2 km/h 27.8 km/h 55.9% 0.0 mm
14:59 27.8 °C 18.2 °C 1014.5 hPa NE 12.6 km/h 27.4 km/h 56% 0.0 mm
15:04 27.8 °C 18.1 °C 1014.5 hPa NNE 13.7 km/h 24.5 km/h 55.7% 0.0 mm
15:09 27.6 °C 18.1 °C 1014.4 hPa NE 14 km/h 28.2 km/h 56.1% 0.0 mm
15:14 27.6 °C 18.4 °C 1014.4 hPa NNE 15.6 km/h 27.8 km/h 57.3% 0.0 mm
15:19 27.7 °C 18.4 °C 1014.4 hPa NE 15.5 km/h 25.7 km/h 56.9% 0.0 mm
15:24 27.8 °C 18.4 °C 1014.2 hPa NE 14.8 km/h 24.1 km/h 56.8% 0.0 mm
15:29 27.9 °C 18.3 °C 1014.2 hPa NE 14.3 km/h 25.9 km/h 55.9% 0.0 mm
15:34 27.8 °C 18.2 °C 1014.2 hPa NE 11.9 km/h 25.7 km/h 55.9% 0.0 mm
15:39 27.8 °C 18.3 °C 1014.1 hPa NE 12 km/h 22.5 km/h 56.4% 0.0 mm
15:44 27.8 °C 18.3 °C 1014.1 hPa NE 12.2 km/h 19.3 km/h 56.4% 0.0 mm
15:49 27.9 °C 18.2 °C 1014.1 hPa NE 11.9 km/h 24.1 km/h 55.6% 0.0 mm
15:54 27.9 °C 18.1 °C 1014.0 hPa NE 10.3 km/h 24.1 km/h 55.4% 0.0 mm
15:59 27.8 °C 18 °C 1014.0 hPa NE 10.7 km/h 24.1 km/h 55.3% 0.0 mm
16:04 27.8 °C 18.1 °C 1014.0 hPa NE 11.9 km/h 20.9 km/h 55.6% 0.0 mm
16:09 27.8 °C 18.1 °C 1013.9 hPa ENE 11.9 km/h 20.9 km/h 55.5% 0.0 mm
16:14 27.9 °C 18 °C 1013.9 hPa ENE 11.9 km/h 20.9 km/h 54.9% 0.0 mm
16:19 28.1 °C 18.1 °C 1013.9 hPa NE 11.8 km/h 24.1 km/h 54.4% 0.0 mm
16:24 28.1 °C 18 °C 1013.8 hPa NE 11.1 km/h 24.1 km/h 54% 0.0 mm
16:29 28.1 °C 17.9 °C 1013.8 hPa NE 11.2 km/h 22.2 km/h 53.8% 0.0 mm
16:34 28 °C 17.9 °C 1013.8 hPa NE 11.9 km/h 22.5 km/h 54% 0.0 mm
16:39 28 °C 18 °C 1013.7 hPa NE 11.8 km/h 22.5 km/h 54.6% 0.0 mm
16:44 28.2 °C 18 °C 1013.7 hPa NE 11.1 km/h 21.7 km/h 54% 0.0 mm
16:49 28.1 °C 18 °C 1013.7 hPa NE 11.3 km/h 24.5 km/h 54.2% 0.0 mm
16:54 27.8 °C 18.1 °C 1013.7 hPa NE 12.2 km/h 24.1 km/h 55.5% 0.0 mm
16:59 28 °C 18.3 °C 1013.7 hPa NE 12 km/h 19.3 km/h 55.7% 0.0 mm
17:04 28.1 °C 18.5 °C 1013.8 hPa NE 11.1 km/h 23.7 km/h 55.9% 0.0 mm
17:09 28.1 °C 18.4 °C 1013.8 hPa NE 11 km/h 24.1 km/h 55.7% 0.0 mm
17:14 28.1 °C 18.2 °C 1013.8 hPa NE 10.3 km/h 25.9 km/h 55.1% 0.0 mm
17:19 28 °C 18 °C 1013.8 hPa NE 10.5 km/h 25.7 km/h 54.6% 0.0 mm
17:24 27.9 °C 17.9 °C 1013.8 hPa NNE 11.1 km/h 20.9 km/h 54.6% 0.0 mm
17:29 27.9 °C 18 °C 1013.8 hPa NE 10.9 km/h 16.7 km/h 55% 0.0 mm
17:34 27.9 °C 17.7 °C 1013.8 hPa NE 10 km/h 17.2 km/h 54% 0.0 mm
17:39 28 °C 17.6 °C 1013.7 hPa ENE 9.9 km/h 17.7 km/h 53.3% 0.0 mm
17:44 28 °C 17.6 °C 1013.7 hPa NE 9.5 km/h 19 km/h 53.2% 0.0 mm
17:49 27.9 °C 17.5 °C 1013.7 hPa NE 9.6 km/h 19.3 km/h 53.1% 0.0 mm
17:54 27.8 °C 17.4 °C 1013.6 hPa NE 10.3 km/h 22.2 km/h 53% 0.0 mm
17:59 27.8 °C 17.3 °C 1013.6 hPa ENE 10.7 km/h 22.5 km/h 52.8% 0.0 mm
18:04 27.8 °C 17.6 °C 1013.6 hPa NE 12.2 km/h 22.5 km/h 53.9% 0.0 mm
18:09 27.7 °C 17.8 °C 1013.4 hPa NE 12.1 km/h 22.5 km/h 54.8% 0.0 mm
18:14 27.7 °C 17.5 °C 1013.4 hPa NE 11.1 km/h 20.4 km/h 54% 0.0 mm
18:19 27.6 °C 16.5 °C 1013.4 hPa NNE 11.3 km/h 20.9 km/h 50.8% 0.0 mm
18:24 27.6 °C 17.1 °C 1013.4 hPa NE 12.2 km/h 22.5 km/h 52.6% 0.0 mm
18:29 27.6 °C 17.4 °C 1013.4 hPa NE 12.4 km/h 22.5 km/h 53.8% 0.0 mm
18:34 27.6 °C 17.3 °C 1013.5 hPa NE 13 km/h 20.9 km/h 53.6% 0.0 mm
18:39 27.6 °C 17 °C 1013.5 hPa NE 12.7 km/h 19.3 km/h 52.5% 0.0 mm
18:44 27.5 °C 17.4 °C 1013.5 hPa NE 11.1 km/h 19.8 km/h 53.8% 0.0 mm
18:49 27.4 °C 17.3 °C 1013.6 hPa ENE 11.1 km/h 20.9 km/h 54.2% 0.0 mm
18:54 27.4 °C 17.7 °C 1013.6 hPa NE 11.1 km/h 20.9 km/h 55.6% 0.0 mm
18:59 27.3 °C 17.6 °C 1013.6 hPa NE 10.9 km/h 19.8 km/h 55.5% 0.0 mm
19:04 27.2 °C 17.9 °C 1013.8 hPa NE 10.3 km/h 20.9 km/h 57.2% 0.0 mm
19:09 27 °C 18 °C 1013.8 hPa NE 10.6 km/h 19.3 km/h 58% 0.0 mm
19:14 26.8 °C 18.3 °C 1013.8 hPa NE 11.9 km/h 17.7 km/h 59.6% 0.0 mm
19:19 26.7 °C 18.4 °C 1013.9 hPa NE 11.6 km/h 16.7 km/h 60.4% 0.0 mm
19:24 26.6 °C 18.6 °C 1013.9 hPa NE 10.3 km/h 20.4 km/h 61.5% 0.0 mm
19:29 26.3 °C 18.7 °C 1013.9 hPa NE 10.7 km/h 22.2 km/h 62.7% 0.0 mm
19:34 26.2 °C 18.9 °C 1013.9 hPa NE 12.2 km/h 22.5 km/h 64.1% 0.0 mm
19:39 26.1 °C 19.1 °C 1013.9 hPa NE 12.4 km/h 20.9 km/h 65.6% 0.0 mm
19:44 25.9 °C 19.3 °C 1013.9 hPa NE 13 km/h 20.9 km/h 67.2% 0.0 mm
19:49 25.8 °C 19.5 °C 1014.2 hPa NE 12.6 km/h 18.5 km/h 68.4% 0.0 mm
19:54 25.7 °C 19.7 °C 1014.2 hPa NE 10.3 km/h 19.3 km/h 69.7% 0.0 mm
19:59 25.4 °C 19.8 °C 1014.2 hPa NNE 10.7 km/h 19.3 km/h 70.9% 0.0 mm
20:04 25.3 °C 19.8 °C 1014.2 hPa NE 11.9 km/h 20.4 km/h 71.9% 0.0 mm
20:09 25.1 °C 19.9 °C 1014.2 hPa NE 11.9 km/h 22.2 km/h 73% 0.0 mm
20:14 24.9 °C 19.8 °C 1014.2 hPa NE 11.9 km/h 22.5 km/h 73.4% 0.0 mm
20:19 24.8 °C 19.8 °C 1014.3 hPa NE 12.1 km/h 20.9 km/h 74% 0.0 mm
20:24 24.8 °C 19.8 °C 1014.3 hPa NE 13 km/h 19.3 km/h 74.1% 0.0 mm
20:29 24.7 °C 19.9 °C 1014.3 hPa NE 12.3 km/h 19.3 km/h 75% 0.0 mm
20:34 24.6 °C 19.9 °C 1014.3 hPa ENE 9.5 km/h 14.8 km/h 75.1% 0.0 mm
20:39 24.5 °C 20 °C 1014.3 hPa NE 9.3 km/h 14.8 km/h 76% 0.0 mm
20:44 24.4 °C 20 °C 1014.3 hPa NE 8.4 km/h 16.7 km/h 76.6% 0.0 mm
20:49 24.3 °C 20 °C 1014.5 hPa NE 8.4 km/h 16.1 km/h 77.1% 0.0 mm
20:54 24.3 °C 20.2 °C 1014.5 hPa NE 8.7 km/h 14.8 km/h 78% 0.0 mm
20:59 24.2 °C 20.2 °C 1014.5 hPa NE 8.9 km/h 14.5 km/h 78.4% 0.0 mm
21:04 24.1 °C 20.2 °C 1014.7 hPa NE 9.5 km/h 14.8 km/h 79% 0.0 mm
21:09 24 °C 20.3 °C 1014.7 hPa NE 9.3 km/h 14.5 km/h 79.8% 0.0 mm
21:14 23.9 °C 20.3 °C 1014.7 hPa NE 8.4 km/h 14.8 km/h 80.2% 0.0 mm
21:19 23.8 °C 20.4 °C 1015.0 hPa NE 8.6 km/h 14.8 km/h 81% 0.0 mm
21:24 23.8 °C 20.4 °C 1015.0 hPa NE 10 km/h 14.8 km/h 81.7% 0.0 mm
21:29 23.7 °C 20.4 °C 1015.0 hPa NE 9.7 km/h 14.5 km/h 82% 0.0 mm
21:34 23.7 °C 20.5 °C 1015.1 hPa NE 8.7 km/h 13 km/h 82.3% 0.0 mm
21:39 23.6 °C 20.6 °C 1015.1 hPa ENE 8.4 km/h 12.9 km/h 83% 0.0 mm
21:44 23.6 °C 20.5 °C 1015.1 hPa NE 6.9 km/h 11.3 km/h 83% 0.0 mm
21:49 23.5 °C 20.5 °C 1015.2 hPa NE 6.9 km/h 11.3 km/h 83.7% 0.0 mm
21:54 23.4 °C 20.6 °C 1015.2 hPa NE 6.5 km/h 11.3 km/h 84% 0.0 mm
21:59 23.4 °C 20.5 °C 1015.2 hPa NE 6.1 km/h 8.4 km/h 84% 0.0 mm
22:04 23.3 °C 20.6 °C 1015.6 hPa NE 4.7 km/h 10.3 km/h 85% 0.0 mm
22:09 23.3 °C 20.6 °C 1015.6 hPa ENE 4.7 km/h 11.3 km/h 85% 0.0 mm
22:14 23.3 °C 20.6 °C 1015.6 hPa ENE 4.7 km/h 11.3 km/h 85% 0.0 mm
22:19 23.2 °C 20.6 °C 1015.7 hPa NE 4.7 km/h 10 km/h 85% 0.0 mm
22:24 23.2 °C 20.6 °C 1015.7 hPa NE 5 km/h 9.7 km/h 85% 0.0 mm
22:29 23.2 °C 20.7 °C 1015.7 hPa NE 4.9 km/h 8 km/h 86% 0.0 mm
22:34 23.1 °C 20.6 °C 1015.8 hPa NE 4.7 km/h 8.4 km/h 86% 0.0 mm
22:39 23.1 °C 20.6 °C 1015.8 hPa NE 4.7 km/h 8 km/h 86% 0.0 mm
22:44 23.1 °C 20.6 °C 1015.8 hPa NE 4.7 km/h 8 km/h 86% 0.0 mm
22:49 23 °C 20.6 °C 1015.8 hPa NE 4.7 km/h 9.3 km/h 86% 0.0 mm
22:54 22.9 °C 20.6 °C 1015.8 hPa NNE 5 km/h 9.7 km/h 86.4% 0.0 mm
22:59 22.9 °C 20.6 °C 1015.8 hPa NE 4.7 km/h 8 km/h 87% 0.0 mm
23:04 22.8 °C 20.6 °C 1015.9 hPa North 3.9 km/h 5.8 km/h 87% 0.0 mm
23:09 22.8 °C 20.5 °C 1015.9 hPa NNO 3.7 km/h 6.4 km/h 87% 0.0 mm
23:14 22.7 °C 20.5 °C 1015.9 hPa NNO 2.9 km/h 6.9 km/h 87% 0.0 mm
23:19 22.7 °C 20.6 °C 1015.9 hPa North 3 km/h 8 km/h 88% 0.0 mm
23:24 22.7 °C 20.5 °C 1015.9 hPa NNE 3.2 km/h 7.4 km/h 88% 0.0 mm
23:29 22.6 °C 20.5 °C 1015.9 hPa NE 3.3 km/h 8 km/h 88% 0.0 mm
23:34 22.6 °C 20.5 °C 1015.9 hPa NE 3.9 km/h 8 km/h 88% 0.0 mm
23:39 22.5 °C 20.6 °C 1015.8 hPa NNE 3.9 km/h 8 km/h 88.9% 0.0 mm
23:44 22.5 °C 20.6 °C 1015.8 hPa NNE 3.9 km/h 7.4 km/h 89% 0.0 mm
23:49 22.5 °C 20.6 °C 1015.8 hPa NNE 3.7 km/h 8 km/h 89% 0.0 mm
23:54 22.6 °C 20.6 °C 1015.8 hPa NNE 2.9 km/h 5.6 km/h 89% 0.0 mm
23:59 22.5 °C 20.6 °C 1015.8 hPa NNE 2.8 km/h 4.8 km/h 89% 0.0 mm
Murcia-Puente Tocinos, España
Compliments of Weather Underground - 3 mb

La estación de MeteoMurcia.com, publica sus datos en los siguientes proyectos:

Weather Underground PWS IMURCIAP2 Meteoclimatic www.awekas.at

W3Counter
Web Analytics